createdAt,value
2017-12-06T00:02:10.075Z,21.80
2017-12-06T00:04:38.867Z,20.20
2017-12-06T00:07:05.486Z,17.93
2017-12-06T00:09:31.891Z,18.37
2017-12-06T00:12:00.023Z,19.53
2017-12-06T00:14:32.391Z,17.93
2017-12-06T00:17:02.604Z,20.30
2017-12-06T00:19:29.727Z,17.60
2017-12-06T00:21:57.042Z,18.57
2017-12-06T00:24:25.174Z,19.47
2017-12-06T00:26:51.667Z,20.23
2017-12-06T00:29:18.677Z,19.67
2017-12-06T00:31:45.110Z,19.33
2017-12-06T00:34:12.788Z,16.83
2017-12-06T00:36:40.635Z,19.23
2017-12-06T00:39:07.770Z,18.20
2017-12-06T00:41:35.023Z,18.60
2017-12-06T00:44:01.751Z,20.10
2017-12-06T00:46:29.452Z,22.83
2017-12-06T00:48:57.267Z,20.00
2017-12-06T00:51:29.707Z,16.30
2017-12-06T00:53:57.146Z,21.13
2017-12-06T00:56:23.710Z,23.33
2017-12-06T00:58:50.790Z,17.33
2017-12-06T01:01:17.341Z,19.43
2017-12-06T01:03:43.820Z,17.43
2017-12-06T01:06:11.210Z,18.77
2017-12-06T01:08:37.831Z,24.23
2017-12-06T01:11:04.271Z,17.50
2017-12-06T01:13:30.818Z,16.87
2017-12-06T01:15:57.140Z,18.07
2017-12-06T01:18:23.568Z,15.53
2017-12-06T01:20:50.070Z,16.73
2017-12-06T01:23:17.259Z,24.10
2017-12-06T01:25:44.807Z,18.30
2017-12-06T01:28:11.347Z,20.23
2017-12-06T01:30:37.862Z,18.87
2017-12-06T01:33:05.067Z,16.40
2017-12-06T01:35:31.659Z,16.23
2017-12-06T01:37:58.061Z,19.40
2017-12-06T01:40:25.274Z,18.73
2017-12-06T01:42:52.403Z,18.10
2017-12-06T01:45:18.842Z,17.97
2017-12-06T01:47:45.474Z,28.70
2017-12-06T01:50:12.008Z,20.80
2017-12-06T01:52:39.208Z,23.73
2017-12-06T01:55:06.488Z,25.53
2017-12-06T01:57:33.017Z,18.47
2017-12-06T02:00:00.522Z,19.23
2017-12-06T02:02:26.840Z,20.07
2017-12-06T02:04:53.190Z,20.80
2017-12-06T02:07:20.220Z,19.43
2017-12-06T02:09:46.656Z,19.37
2017-12-06T02:12:13.160Z,20.40
2017-12-06T02:14:39.687Z,21.10
2017-12-06T02:17:06.152Z,20.97
2017-12-06T02:19:32.707Z,19.17
2017-12-06T02:22:00.645Z,19.13
2017-12-06T02:24:27.230Z,21.20
2017-12-06T02:26:54.439Z,23.00
2017-12-06T02:29:22.084Z,19.90
2017-12-06T02:31:49.320Z,21.80
2017-12-06T02:34:15.657Z,23.53
2017-12-06T02:36:43.081Z,20.53
2017-12-06T02:39:09.535Z,22.37
2017-12-06T02:41:48.180Z,18.57
2017-12-06T02:44:27.010Z,22.00
2017-12-06T02:46:53.631Z,23.30
2017-12-06T02:49:22.960Z,22.17
2017-12-06T02:51:49.370Z,20.90
2017-12-06T02:54:16.030Z,26.00
2017-12-06T02:56:43.530Z,23.43
2017-12-06T02:59:10.586Z,25.13
2017-12-06T03:01:37.004Z,21.03
2017-12-06T03:04:03.522Z,20.67
2017-12-06T03:06:30.603Z,22.60
2017-12-06T03:08:57.117Z,20.17
2017-12-06T03:11:23.668Z,20.70
2017-12-06T03:13:51.677Z,19.70
2017-12-06T03:16:18.378Z,19.00
2017-12-06T03:18:44.709Z,20.80
2017-12-06T03:21:11.190Z,21.70
2017-12-06T03:23:39.204Z,22.50
2017-12-06T03:26:05.633Z,22.20
2017-12-06T03:28:32.346Z,22.10
2017-12-06T03:31:00.271Z,28.67
2017-12-06T03:33:27.129Z,20.33
2017-12-06T03:35:55.365Z,21.40
2017-12-06T03:38:21.900Z,22.30
2017-12-06T03:40:49.599Z,22.33
2017-12-06T03:43:16.604Z,27.53
2017-12-06T03:45:43.100Z,25.87
2017-12-06T03:48:11.117Z,22.03
2017-12-06T03:50:39.092Z,21.93
2017-12-06T03:53:05.520Z,22.50
2017-12-06T03:55:32.080Z,23.60
2017-12-06T03:57:58.880Z,23.10
2017-12-06T04:00:26.290Z,24.67
2017-12-06T04:02:54.298Z,20.33
2017-12-06T04:05:20.739Z,25.20
2017-12-06T04:07:47.174Z,26.30
2017-12-06T04:10:16.252Z,25.03
2017-12-06T04:12:43.887Z,21.10
2017-12-06T04:15:11.039Z,19.33
2017-12-06T04:17:38.337Z,25.13
2017-12-06T04:20:05.605Z,23.80
2017-12-06T04:22:32.136Z,21.17
2017-12-06T04:24:58.415Z,24.63
2017-12-06T04:27:25.019Z,23.90
2017-12-06T04:29:52.268Z,24.43
2017-12-06T04:32:18.564Z,19.60
2017-12-06T04:34:44.860Z,22.43
2017-12-06T04:37:13.769Z,19.10
2017-12-06T04:39:40.301Z,21.37
2017-12-06T04:42:09.092Z,29.53
2017-12-06T04:44:35.549Z,19.57
2017-12-06T04:47:01.836Z,26.90
2017-12-06T04:49:28.360Z,26.17
2017-12-06T04:51:56.717Z,22.60
2017-12-06T04:54:24.621Z,21.73
2017-12-06T04:56:51.059Z,21.57
2017-12-06T04:59:17.577Z,28.93
2017-12-06T05:01:45.680Z,21.27
2017-12-06T05:04:13.134Z,20.97
2017-12-06T05:06:39.569Z,23.80
2017-12-06T05:09:06.000Z,22.40
2017-12-06T05:11:33.160Z,23.97
2017-12-06T05:13:59.620Z,21.80
2017-12-06T05:16:26.749Z,23.70
2017-12-06T05:18:53.470Z,19.57
2017-12-06T05:21:20.090Z,21.07
2017-12-06T05:23:47.401Z,21.07
2017-12-06T05:26:14.550Z,21.70
2017-12-06T05:28:41.129Z,23.77
2017-12-06T05:31:10.233Z,22.13
2017-12-06T05:33:36.898Z,19.03
2017-12-06T05:36:04.480Z,27.70
2017-12-06T05:38:31.780Z,24.07
2017-12-06T05:40:59.382Z,23.97
2017-12-06T05:43:26.050Z,18.10
2017-12-06T05:45:52.751Z,22.87
2017-12-06T05:48:19.400Z,19.47
2017-12-06T05:50:49.080Z,19.40
2017-12-06T05:53:15.560Z,24.20
2017-12-06T05:55:42.660Z,22.70
2017-12-06T05:58:10.189Z,30.03
2017-12-06T06:00:37.260Z,23.43
2017-12-06T06:03:05.540Z,17.47
2017-12-06T06:05:32.297Z,26.10
2017-12-06T06:07:59.520Z,21.73
2017-12-06T06:10:28.730Z,39.10
2017-12-06T06:12:55.640Z,31.40
2017-12-06T06:15:23.160Z,21.23
2017-12-06T06:17:50.423Z,20.40
2017-12-06T06:20:17.000Z,23.90
2017-12-06T06:22:43.660Z,22.13
2017-12-06T06:25:10.211Z,22.23
2017-12-06T06:27:37.750Z,24.97
2017-12-06T06:30:06.440Z,23.30
2017-12-06T06:32:34.399Z,24.63
2017-12-06T06:35:00.963Z,24.83
2017-12-06T06:37:29.343Z,24.83
2017-12-06T06:39:56.720Z,25.37
2017-12-06T06:42:24.623Z,23.50
2017-12-06T06:44:52.092Z,26.47
2017-12-06T06:47:20.528Z,23.60
2017-12-06T06:49:48.723Z,19.70
2017-12-06T06:52:17.177Z,25.40
2017-12-06T06:54:44.128Z,23.90
2017-12-06T06:57:11.659Z,23.93
2017-12-06T06:59:38.329Z,23.87
2017-12-06T07:02:04.770Z,23.50
2017-12-06T07:04:32.440Z,28.00
2017-12-06T07:06:58.938Z,18.77
2017-12-06T07:09:25.650Z,22.97
2017-12-06T07:11:53.122Z,20.47
2017-12-06T07:14:19.731Z,24.23
2017-12-06T07:16:46.530Z,22.23
2017-12-06T07:19:13.250Z,26.50
2017-12-06T07:21:40.829Z,22.03
2017-12-06T07:24:07.562Z,23.30
2017-12-06T07:26:34.339Z,25.23
2017-12-06T07:29:01.288Z,30.20
2017-12-06T07:31:29.090Z,19.10
2017-12-06T07:33:56.589Z,16.90
2017-12-06T07:36:24.740Z,22.80
2017-12-06T07:38:52.290Z,21.77
2017-12-06T07:41:18.959Z,20.87
2017-12-06T07:43:45.441Z,19.67
2017-12-06T07:46:12.149Z,25.13
2017-12-06T07:48:39.249Z,21.73
2017-12-06T07:51:06.629Z,21.30
2017-12-06T07:53:35.759Z,21.87
2017-12-06T07:56:04.325Z,30.43
2017-12-06T07:58:37.989Z,19.27
2017-12-06T08:01:05.510Z,21.03
2017-12-06T08:03:32.502Z,23.23
2017-12-06T08:05:59.919Z,17.37
2017-12-06T08:08:27.419Z,21.27
2017-12-06T08:10:54.142Z,24.00
2017-12-06T08:13:20.970Z,20.10
2017-12-06T08:15:48.299Z,21.63
2017-12-06T08:18:14.939Z,23.30
2017-12-06T08:20:42.530Z,21.50
2017-12-06T08:23:09.290Z,20.50
2017-12-06T08:25:36.737Z,20.73
2017-12-06T08:28:03.241Z,20.40
2017-12-06T08:30:31.020Z,19.73
2017-12-06T08:32:57.629Z,18.53
2017-12-06T08:35:24.527Z,21.30
2017-12-06T08:37:51.282Z,23.93
2017-12-06T08:40:17.990Z,24.40
2017-12-06T08:42:45.479Z,18.30
2017-12-06T08:45:12.289Z,20.07
2017-12-06T08:47:40.149Z,19.30
2017-12-06T08:50:06.619Z,23.50
2017-12-06T08:52:34.292Z,18.13
2017-12-06T08:55:00.898Z,23.07
2017-12-06T08:57:30.329Z,17.83
2017-12-06T08:59:57.769Z,18.53
2017-12-06T09:02:26.249Z,22.27
2017-12-06T09:04:53.096Z,19.20
2017-12-06T09:07:19.829Z,27.10
2017-12-06T09:09:46.655Z,18.97
2017-12-06T09:12:13.517Z,19.00
2017-12-06T09:14:40.207Z,16.77
2017-12-06T09:17:07.522Z,17.33
2017-12-06T09:19:34.809Z,14.47
2017-12-06T09:22:01.490Z,18.43
2017-12-06T09:24:28.260Z,19.20
2017-12-06T09:26:55.666Z,28.03
2017-12-06T09:29:24.654Z,14.70
2017-12-06T09:31:51.800Z,19.00
2017-12-06T09:34:19.447Z,18.83
2017-12-06T09:36:45.969Z,17.90
2017-12-06T09:39:14.556Z,20.03
2017-12-06T09:41:41.338Z,14.30
2017-12-06T09:44:08.289Z,24.07
2017-12-06T09:46:35.906Z,17.67
2017-12-06T09:49:04.500Z,14.60
2017-12-06T09:51:31.391Z,15.37
2017-12-06T09:53:59.543Z,16.10
2017-12-06T09:56:26.870Z,17.40
2017-12-06T09:58:54.310Z,14.17
2017-12-06T10:01:20.990Z,14.93
2017-12-06T10:03:47.700Z,17.00
2017-12-06T10:06:14.451Z,18.10
2017-12-06T10:08:41.240Z,15.43
2017-12-06T10:11:09.001Z,16.20
2017-12-06T10:13:35.440Z,31.50
2017-12-06T10:16:02.770Z,23.23
2017-12-06T10:18:30.130Z,14.80
2017-12-06T10:20:57.729Z,19.03
2017-12-06T10:23:27.620Z,16.63
2017-12-06T10:25:54.371Z,16.87
2017-12-06T10:28:21.550Z,18.80
2017-12-06T10:30:48.610Z,14.47
2017-12-06T10:33:15.380Z,18.60
2017-12-06T10:35:43.438Z,17.20
2017-12-06T10:38:11.472Z,18.53
2017-12-06T10:40:38.020Z,20.90
2017-12-06T10:43:04.660Z,14.57
2017-12-06T10:45:32.210Z,18.33
2017-12-06T10:47:58.761Z,15.00
2017-12-06T10:50:25.451Z,16.00
2017-12-06T10:52:52.990Z,16.77
2017-12-06T10:55:19.859Z,21.10
2017-12-06T10:57:47.420Z,18.90
2017-12-06T11:00:14.200Z,20.50
2017-12-06T11:02:40.690Z,30.93
2017-12-06T11:05:07.320Z,24.00
2017-12-06T11:07:33.910Z,19.90
2017-12-06T11:10:01.090Z,21.47
2017-12-06T11:12:28.072Z,19.27
2017-12-06T11:14:56.771Z,26.53
2017-12-06T11:17:23.580Z,28.70
2017-12-06T11:19:53.010Z,22.57
2017-12-06T11:22:19.630Z,34.77
2017-12-06T11:24:46.543Z,25.97
2017-12-06T11:27:13.239Z,26.83
2017-12-06T11:29:39.730Z,28.07
2017-12-06T11:32:06.350Z,26.70
2017-12-06T11:34:33.039Z,24.87
2017-12-06T11:37:00.259Z,29.13
2017-12-06T11:39:27.731Z,29.60
2017-12-06T11:41:56.060Z,26.00
2017-12-06T11:44:23.520Z,40.40
2017-12-06T11:46:56.129Z,30.90
2017-12-06T11:49:22.969Z,21.87
2017-12-06T11:51:49.550Z,25.30
2017-12-06T11:54:17.031Z,24.03
2017-12-06T11:56:43.849Z,24.77
2017-12-06T11:59:11.871Z,37.70
2017-12-06T12:01:39.949Z,25.00
2017-12-06T12:04:07.589Z,21.87
2017-12-06T12:06:34.820Z,28.97
2017-12-06T12:09:02.461Z,34.53
2017-12-06T12:11:29.769Z,27.23
2017-12-06T12:13:56.418Z,27.10
2017-12-06T12:16:22.920Z,29.10
2017-12-06T12:18:50.190Z,35.87
2017-12-06T12:21:17.903Z,27.43
2017-12-06T12:23:45.629Z,25.07
2017-12-06T12:26:12.221Z,24.17
2017-12-06T12:28:39.662Z,25.67
2017-12-06T12:31:07.157Z,26.90
2017-12-06T12:33:34.099Z,23.97
2017-12-06T12:36:00.611Z,26.60
2017-12-06T12:38:27.542Z,33.67
2017-12-06T12:40:54.779Z,30.30
2017-12-06T12:43:22.961Z,30.23
2017-12-06T12:45:52.771Z,34.10
2017-12-06T12:48:21.789Z,27.30
2017-12-06T12:50:52.250Z,31.13
2017-12-06T12:53:18.961Z,30.57
2017-12-06T12:55:46.329Z,31.67
2017-12-06T12:58:13.629Z,31.13
2017-12-06T13:00:42.428Z,26.00
2017-12-06T13:03:09.090Z,35.83
2017-12-06T13:05:36.910Z,24.60
2017-12-06T13:08:05.869Z,26.57
2017-12-06T13:10:32.436Z,26.30
2017-12-06T13:12:59.354Z,32.63
2017-12-06T13:15:29.247Z,26.03
2017-12-06T13:17:56.922Z,30.90
2017-12-06T13:20:24.369Z,30.67
2017-12-06T13:22:51.050Z,30.40
2017-12-06T13:25:17.640Z,26.37
2017-12-06T13:27:44.354Z,29.97
2017-12-06T13:30:11.793Z,31.73
2017-12-06T13:32:38.640Z,30.03
2017-12-06T13:35:05.209Z,30.60
2017-12-06T13:37:31.919Z,29.80
2017-12-06T13:39:58.879Z,33.53
2017-12-06T13:42:27.731Z,38.00
2017-12-06T13:44:56.150Z,30.57
2017-12-06T13:47:22.889Z,33.73
2017-12-06T13:49:50.245Z,29.40
2017-12-06T13:52:16.931Z,28.20
2017-12-06T13:54:44.549Z,33.07
2017-12-06T13:57:11.235Z,28.07
2017-12-06T13:59:38.770Z,46.37
2017-12-06T14:02:08.349Z,28.03
2017-12-06T14:04:34.922Z,34.03
2017-12-06T14:07:02.989Z,35.17
2017-12-06T14:09:29.533Z,34.47
2017-12-06T14:11:56.203Z,39.90
2017-12-06T14:14:22.517Z,34.33
2017-12-06T14:16:49.574Z,37.97
2017-12-06T14:19:16.058Z,35.73
2017-12-06T14:21:43.065Z,30.67
2017-12-06T14:24:10.557Z,32.83
2017-12-06T14:26:37.004Z,32.23
2017-12-06T14:29:03.451Z,33.43
2017-12-06T14:31:30.578Z,33.03
2017-12-06T14:33:57.002Z,31.10
2017-12-06T14:36:23.349Z,37.13
2017-12-06T14:38:49.729Z,31.63
2017-12-06T14:41:16.483Z,30.73
2017-12-06T14:43:42.967Z,32.53
2017-12-06T14:46:10.363Z,26.13
2017-12-06T14:48:36.756Z,31.90
2017-12-06T14:51:04.295Z,32.53
2017-12-06T14:53:30.778Z,40.07
2017-12-06T14:55:57.242Z,31.33
2017-12-06T14:58:24.232Z,34.77
2017-12-06T15:00:51.073Z,37.67
2017-12-06T15:03:18.353Z,31.03
2017-12-06T15:05:45.663Z,30.83
2017-12-06T15:08:12.763Z,30.37
2017-12-06T15:10:39.314Z,30.23
2017-12-06T15:13:05.692Z,29.17
2017-12-06T15:15:32.062Z,29.77
2017-12-06T15:17:59.569Z,41.00
2017-12-06T15:20:26.393Z,29.47
2017-12-06T15:22:53.572Z,25.70
2017-12-06T15:25:20.717Z,33.30
2017-12-06T15:27:47.522Z,36.30
2017-12-06T15:30:13.891Z,37.37
2017-12-06T15:32:40.531Z,29.83
2017-12-06T15:35:07.135Z,30.10
2017-12-06T15:37:33.582Z,31.10
2017-12-06T15:40:00.781Z,29.47
2017-12-06T15:42:27.143Z,29.97
2017-12-06T15:44:53.430Z,37.53
2017-12-06T15:47:19.906Z,30.70
2017-12-06T15:49:46.420Z,30.80
2017-12-06T15:52:12.892Z,37.83
2017-12-06T15:54:40.091Z,31.83
2017-12-06T15:57:06.413Z,28.60
2017-12-06T15:59:33.001Z,25.83
2017-12-06T16:02:00.086Z,29.23
2017-12-06T16:04:26.565Z,35.20
2017-12-06T16:06:54.182Z,30.37
2017-12-06T16:09:21.027Z,27.23
2017-12-06T16:11:47.485Z,30.87
2017-12-06T16:14:14.616Z,33.77
2017-12-06T16:16:41.011Z,28.33
2017-12-06T16:19:07.558Z,30.43
2017-12-06T16:21:33.903Z,31.83
2017-12-06T16:24:00.505Z,28.57
2017-12-06T16:26:28.094Z,30.00
2017-12-06T16:28:54.471Z,30.13
2017-12-06T16:31:22.278Z,29.90
2017-12-06T16:33:48.623Z,27.50
2017-12-06T16:36:27.248Z,29.77
2017-12-06T16:38:53.658Z,33.37
2017-12-06T16:41:20.137Z,26.43
2017-12-06T16:43:48.202Z,32.17
2017-12-06T16:46:15.198Z,28.07
2017-12-06T16:48:41.702Z,27.93
2017-12-06T16:51:09.198Z,28.13
2017-12-06T16:53:35.651Z,31.23
2017-12-06T16:56:02.003Z,30.20
2017-12-06T16:58:28.263Z,27.77
2017-12-06T17:00:55.357Z,29.83
2017-12-06T17:03:23.005Z,28.53
2017-12-06T17:05:49.444Z,28.07
2017-12-06T17:08:15.778Z,25.50
2017-12-06T17:10:43.207Z,32.03
2017-12-06T17:13:10.610Z,25.90
2017-12-06T17:15:38.399Z,27.87
2017-12-06T17:18:05.747Z,25.23
2017-12-06T17:20:33.682Z,29.20
2017-12-06T17:23:00.336Z,26.30
2017-12-06T17:25:27.146Z,23.17
2017-12-06T17:27:54.417Z,29.67
2017-12-06T17:30:33.236Z,27.27
2017-12-06T17:32:59.856Z,25.27
2017-12-06T17:35:26.806Z,25.57
2017-12-06T17:37:53.564Z,27.53
2017-12-06T17:40:21.017Z,29.27
2017-12-06T17:42:47.696Z,34.00
2017-12-06T17:45:14.307Z,25.70
2017-12-06T17:47:43.817Z,28.03
2017-12-06T17:50:23.234Z,25.37
2017-12-06T17:52:49.866Z,23.30
2017-12-06T17:55:17.368Z,27.47
2017-12-06T17:57:43.976Z,28.93
2017-12-06T18:00:12.266Z,24.00
2017-12-06T18:02:40.497Z,31.63
2017-12-06T18:05:08.246Z,25.00
2017-12-06T18:07:35.094Z,32.10
2017-12-06T18:10:01.766Z,29.00
2017-12-06T18:12:29.076Z,28.30
2017-12-06T18:14:55.625Z,30.30
2017-12-06T18:17:24.196Z,27.20
2017-12-06T18:19:50.846Z,30.43
2017-12-06T18:22:19.127Z,28.50
2017-12-06T18:24:45.757Z,25.73
2017-12-06T18:27:12.567Z,29.47
2017-12-06T18:29:39.497Z,28.30
2017-12-06T18:32:05.968Z,29.50
2017-12-06T18:34:32.810Z,28.83
2017-12-06T18:36:59.536Z,24.67
2017-12-06T18:39:26.186Z,26.40
2017-12-06T18:41:52.647Z,29.10
2017-12-06T18:44:19.343Z,27.13
2017-12-06T18:46:46.136Z,40.87
2017-12-06T18:49:13.756Z,33.07
2017-12-06T18:51:40.262Z,31.13
2017-12-06T18:54:06.896Z,27.83
2017-12-06T18:56:34.546Z,29.50
2017-12-06T18:59:02.346Z,25.90
2017-12-06T19:01:28.958Z,25.70
2017-12-06T19:03:59.316Z,26.03
2017-12-06T19:06:25.986Z,28.23
2017-12-06T19:08:52.677Z,28.60
2017-12-06T19:11:19.227Z,37.60
2017-12-06T19:13:47.538Z,29.50
2017-12-06T19:16:16.376Z,25.17
2017-12-06T19:18:43.938Z,28.70
2017-12-06T19:21:10.806Z,26.40
2017-12-06T19:23:38.036Z,27.93
2017-12-06T19:26:04.596Z,28.17
2017-12-06T19:28:34.796Z,30.73
2017-12-06T19:31:01.239Z,24.10
2017-12-06T19:33:27.786Z,28.60
2017-12-06T19:35:54.015Z,27.20
2017-12-06T19:38:20.562Z,31.00
2017-12-06T19:40:47.730Z,27.23
2017-12-06T19:43:14.190Z,25.90
2017-12-06T19:45:40.729Z,27.30
2017-12-06T19:48:07.208Z,32.57
2017-12-06T19:50:33.679Z,31.17
2017-12-06T19:53:00.100Z,25.00
2017-12-06T19:55:26.539Z,26.03
2017-12-06T19:57:53.019Z,25.80
2017-12-06T20:00:19.449Z,26.20
2017-12-06T20:02:45.887Z,25.10
2017-12-06T20:05:12.339Z,32.43
2017-12-06T20:07:39.550Z,28.70
2017-12-06T20:10:06.099Z,40.33
2017-12-06T20:12:33.359Z,27.50
2017-12-06T20:14:59.819Z,30.10
2017-12-06T20:17:27.659Z,26.97
2017-12-06T20:19:54.469Z,24.80
2017-12-06T20:22:21.136Z,28.37
2017-12-06T20:24:47.569Z,23.30
2017-12-06T20:27:14.498Z,22.33
2017-12-06T20:29:40.939Z,30.93
2017-12-06T20:32:07.369Z,27.97
2017-12-06T20:34:36.309Z,28.50
2017-12-06T20:37:03.757Z,25.37
2017-12-06T20:39:33.099Z,26.10
2017-12-06T20:41:59.649Z,30.27
2017-12-06T20:44:27.561Z,26.73
2017-12-06T20:46:54.218Z,26.00
2017-12-06T20:49:21.499Z,26.33
2017-12-06T20:51:49.530Z,25.13
2017-12-06T20:54:16.068Z,29.50
2017-12-06T20:56:45.858Z,26.73
2017-12-06T20:59:13.559Z,29.60
2017-12-06T21:01:40.279Z,24.70
2017-12-06T21:04:07.870Z,30.07
2017-12-06T21:06:34.449Z,31.53
2017-12-06T21:09:01.787Z,28.13
2017-12-06T21:11:29.099Z,25.60
2017-12-06T21:13:59.788Z,27.10
2017-12-06T21:16:26.749Z,29.33
2017-12-06T21:18:53.279Z,21.03
2017-12-06T21:21:20.588Z,29.03
2017-12-06T21:23:47.148Z,29.83
2017-12-06T21:26:14.479Z,31.13
2017-12-06T21:28:40.929Z,26.47
2017-12-06T21:31:08.229Z,23.03
2017-12-06T21:33:34.890Z,24.60
2017-12-06T21:36:01.379Z,23.63
2017-12-06T21:38:28.040Z,26.03
2017-12-06T21:40:54.469Z,31.10
2017-12-06T21:43:20.899Z,23.57
2017-12-06T21:45:47.328Z,22.93
2017-12-06T21:48:13.779Z,26.97
2017-12-06T21:50:41.181Z,25.03
2017-12-06T21:53:07.619Z,23.00
2017-12-06T21:55:34.119Z,28.70
2017-12-06T21:58:00.619Z,23.20
2017-12-06T22:00:27.189Z,23.80
2017-12-06T22:02:54.649Z,25.47
2017-12-06T22:05:21.279Z,25.57
2017-12-06T22:07:47.969Z,24.27
2017-12-06T22:10:14.448Z,21.90
2017-12-06T22:12:41.869Z,23.70
2017-12-06T22:15:08.291Z,21.70
2017-12-06T22:17:34.839Z,20.70
2017-12-06T22:20:01.269Z,25.87
2017-12-06T22:22:27.928Z,28.50
2017-12-06T22:24:55.299Z,22.17
2017-12-06T22:27:21.718Z,27.47
2017-12-06T22:29:48.809Z,24.00
2017-12-06T22:32:15.409Z,26.90
2017-12-06T22:34:42.568Z,28.43
2017-12-06T22:37:10.548Z,25.40
2017-12-06T22:39:37.748Z,26.40
2017-12-06T22:42:04.180Z,26.57
2017-12-06T22:44:32.608Z,29.87
2017-12-06T22:46:59.878Z,29.03
2017-12-06T22:49:26.419Z,29.10
2017-12-06T22:51:52.849Z,29.33
2017-12-06T22:54:26.248Z,25.93
2017-12-06T22:56:52.688Z,27.83
2017-12-06T22:59:19.111Z,25.60
2017-12-06T23:01:45.668Z,29.57
2017-12-06T23:04:12.110Z,26.50
2017-12-06T23:06:38.408Z,23.63
2017-12-06T23:09:04.889Z,29.93
2017-12-06T23:11:31.369Z,25.10
2017-12-06T23:13:57.759Z,27.73
2017-12-06T23:16:24.069Z,26.17
2017-12-06T23:18:50.398Z,33.00
2017-12-06T23:21:18.288Z,27.30
2017-12-06T23:23:45.424Z,30.17
2017-12-06T23:26:13.279Z,23.80
2017-12-06T23:28:39.646Z,26.40
2017-12-06T23:31:06.745Z,28.87
2017-12-06T23:33:33.088Z,29.43
2017-12-06T23:35:59.449Z,27.00
2017-12-06T23:38:26.538Z,28.87
2017-12-06T23:40:52.845Z,27.17
2017-12-06T23:43:19.167Z,28.77
2017-12-06T23:45:45.549Z,26.93
2017-12-06T23:48:11.848Z,28.03
2017-12-06T23:50:38.147Z,28.23
2017-12-06T23:53:05.278Z,27.67
2017-12-06T23:55:32.363Z,28.90
2017-12-06T23:57:58.732Z,28.77
